Stolt Jade — ZCSQ4 — position and weather

sailwx.info

Track history (hours):
 
Tides and Currents Weather Stations Pressure Air Temp Water Temp Dewpoint Dewpoint Depression Visibility Wind Speed Wind Dir Waves Ship Positions

Stolt Jade

Last reported at 2016-May-29 12:32 UTC. Time now 2016-May-30 02:53 UTC.
Position N 29°21' W 094°44'.

Length 175 m; draft 9 m.

Type: Ship (hazmat cat C). MMSI: 319439000.

Date/timePositionNaut miles runAvg speedWind from/ knotsBaromVisibWave heightAir tempDewpointWater temp
2016-May-29 12:32N 29°21' W 094°44'8 7.1
2016-May-29 11:24N 29°17' W 094°36'2 1.9
2016-May-29 10:27N 29°15' W 094°37'0 0.0
2016-May-29 07:27N 29°15' W 094°37'0 0.0
2016-May-29 06:33N 29°15' W 094°37'0 0.0
2016-May-29 05:33N 29°15' W 094°37'0 0.0
2016-May-28 13:24N 29°15' W 094°37'0 0.0
2016-May-28 07:31N 29°15' W 094°37'0 0.0
2016-May-28 02:22N 29°15' W 094°37'11 2.0
2016-May-27 20:31N 29°22' W 094°48'1010.6
2016-May-27 19:33N 29°31' W 094°53'1111.2
2016-May-27 18:33N 29°41' W 094°59'7 7.2
2016-May-27 17:33N 29°46' W 095°05'3 3.1
2016-May-27 16:33N 29°44' W 095°08'0 0.0
2016-May-26 15:33N 29°44' W 095°08'4 4.0
2016-May-26 14:33N 29°44' W 095°03'8 8.3
2016-May-26 13:33N 29°37' W 094°58'1010.2
2016-May-26 12:33N 29°29' W 094°51'1612.2
2016-May-26 11:13N 29°18' W 094°37'3 4.0
2016-May-26 10:32N 29°20' W 094°34'2 0.7
2016-May-26 07:25N 29°18' W 094°35'1413.4
2016-May-26 06:24N 29°09' W 094°23'1413.9
2016-May-26 05:23N 29°01' W 094°09'1414.1
2016-May-26 04:25N 28°53' W 093°57'1614.2
2016-May-26 03:18N 28°44' W 093°42'1114.2
2016-May-26 02:30N 28°38' W 093°31'1614.2
2016-May-26 01:21N 28°28' W 093°16'1414.2
2016-May-26 00:24N 28°20' W 093°04'181 5.9
2016-May-24 17:33N 29°45' W 090°01'1111.2
2016-May-24 16:33N 29°55' W 089°55'10 9.8
2016-May-24 15:33N 29°55' W 090°06'  
2016-May-20 10:30N 30°02' W 090°42'0 0.0
2016-May-20 09:30N 30°02' W 090°42'21 1.6
2016-May-19 20:24N 29°58' W 090°18'6 7.3
2016-May-19 19:33N 29°56' W 090°10'5 4.4
2016-May-19 18:30N 29°55' W 090°06'0 0.0
2016-May-19 17:30N 29°55' W 090°06'0 0.0
2016-May-19 16:33N 29°55' W 090°06'0 0.0
2016-May-19 15:33N 29°55' W 090°06'0 0.0
2016-May-19 14:33N 29°55' W 090°06'0 0.0
2016-May-19 13:33N 29°55' W 090°06'0 0.0
2016-May-19 12:33N 29°55' W 090°06'  
Track history (hours):
 
Tides and Currents Weather Stations Pressure Air Temp Water Temp Dewpoint Dewpoint Depression Visibility Wind Speed Wind Dir Waves Ship Positions

Stolt Jade

Last reported at 2016-May-29 12:32 UTC. Time now 2016-May-30 02:53 UTC.
Position N 29°21' W 094°44'.

Length 175 m; draft 9 m.

Type: Ship (hazmat cat C). MMSI: 319439000.

Date/timePositionNaut miles runAvg speedWind from/ knotsBaromVisibWave heightAir tempDewpointWater temp
2016-May-29 12:32N 29°21' W 094°44'8 7.1
2016-May-29 11:24N 29°17' W 094°36'2 1.9
2016-May-29 10:27N 29°15' W 094°37'0 0.0
2016-May-29 07:27N 29°15' W 094°37'0 0.0
2016-May-29 06:33N 29°15' W 094°37'0 0.0
2016-May-29 05:33N 29°15' W 094°37'0 0.0
2016-May-28 13:24N 29°15' W 094°37'0 0.0
2016-May-28 07:31N 29°15' W 094°37'0 0.0
2016-May-28 02:22N 29°15' W 094°37'11 2.0
2016-May-27 20:31N 29°22' W 094°48'1010.6
2016-May-27 19:33N 29°31' W 094°53'1111.2
2016-May-27 18:33N 29°41' W 094°59'7 7.2
2016-May-27 17:33N 29°46' W 095°05'3 3.1
2016-May-27 16:33N 29°44' W 095°08'0 0.0
2016-May-26 15:33N 29°44' W 095°08'4 4.0
2016-May-26 14:33N 29°44' W 095°03'8 8.3
2016-May-26 13:33N 29°37' W 094°58'1010.2
2016-May-26 12:33N 29°29' W 094°51'1612.2
2016-May-26 11:13N 29°18' W 094°37'3 4.0
2016-May-26 10:32N 29°20' W 094°34'2 0.7
2016-May-26 07:25N 29°18' W 094°35'1413.4
2016-May-26 06:24N 29°09' W 094°23'1413.9
2016-May-26 05:23N 29°01' W 094°09'1414.1
2016-May-26 04:25N 28°53' W 093°57'1614.2
2016-May-26 03:18N 28°44' W 093°42'1114.2
2016-May-26 02:30N 28°38' W 093°31'1614.2
2016-May-26 01:21N 28°28' W 093°16'1414.2
2016-May-26 00:24N 28°20' W 093°04'181 5.9
2016-May-24 17:33N 29°45' W 090°01'1111.2
2016-May-24 16:33N 29°55' W 089°55'10 9.8
2016-May-24 15:33N 29°55' W 090°06'  
2016-May-20 10:30N 30°02' W 090°42'0 0.0
2016-May-20 09:30N 30°02' W 090°42'21 1.6
2016-May-19 20:24N 29°58' W 090°18'6 7.3
2016-May-19 19:33N 29°56' W 090°10'5 4.4
2016-May-19 18:30N 29°55' W 090°06'0 0.0
2016-May-19 17:30N 29°55' W 090°06'0 0.0
2016-May-19 16:33N 29°55' W 090°06'0 0.0
2016-May-19 15:33N 29°55' W 090°06'0 0.0
2016-May-19 14:33N 29°55' W 090°06'0 0.0
2016-May-19 13:33N 29°55' W 090°06'0 0.0
2016-May-19 12:33N 29°55' W 090°06'  

Dump ship's entire track history